createdAt,value
2022-11-19T00:00:41.740Z,14.20
2022-11-19T00:02:04.133Z,13.13
2022-11-19T00:03:27.537Z,12.10
2022-11-19T00:04:50.922Z,13.27
2022-11-19T00:06:16.389Z,12.00
2022-11-19T00:07:39.799Z,17.40
2022-11-19T00:09:05.554Z,15.37
2022-11-19T00:10:28.904Z,10.30
2022-11-19T00:12:09.762Z,11.37
2022-11-19T00:13:32.295Z,12.07
2022-11-19T00:14:57.059Z,14.10
2022-11-19T00:16:20.392Z,13.13
2022-11-19T00:17:42.743Z,13.73
2022-11-19T00:19:06.204Z,14.20
2022-11-19T00:20:30.413Z,16.20
2022-11-19T00:21:53.818Z,11.23
2022-11-19T00:23:17.309Z,12.93
2022-11-19T00:24:40.680Z,13.27
2022-11-19T00:26:07.608Z,16.10
2022-11-19T00:27:31.639Z,14.73
2022-11-19T00:28:55.400Z,12.43
2022-11-19T00:30:46.241Z,10.47
2022-11-19T00:32:04.239Z,9.87
2022-11-19T00:33:26.595Z,15.07
2022-11-19T00:34:49.976Z,10.80
2022-11-19T00:36:14.877Z,14.13
2022-11-19T00:37:38.298Z,10.73
2022-11-19T00:39:00.649Z,11.60
2022-11-19T00:40:23.981Z,13.47
2022-11-19T00:41:47.394Z,10.27
2022-11-19T00:43:28.403Z,12.60
2022-11-19T00:44:51.861Z,11.53
2022-11-19T00:46:16.655Z,12.10
2022-11-19T00:47:39.988Z,13.50
2022-11-19T00:49:03.371Z,12.57
2022-11-19T00:50:25.825Z,10.27
2022-11-19T00:51:49.168Z,13.87
2022-11-19T00:53:11.536Z,9.23
2022-11-19T00:54:35.079Z,11.47
2022-11-19T00:56:01.372Z,16.87
2022-11-19T00:57:24.725Z,14.07
2022-11-19T00:58:48.652Z,11.60
2022-11-19T01:00:12.526Z,13.30
2022-11-19T01:01:37.402Z,11.40
2022-11-19T01:02:59.775Z,15.53
2022-11-19T01:04:23.133Z,11.30
2022-11-19T01:05:45.538Z,9.83
2022-11-19T01:07:08.970Z,13.73
2022-11-19T01:08:31.596Z,15.87
2022-11-19T01:09:54.970Z,12.90
2022-11-19T01:11:19.784Z,12.50
2022-11-19T01:12:57.044Z,11.40
2022-11-19T01:14:20.457Z,12.73
2022-11-19T01:15:42.792Z,12.27
2022-11-19T01:17:07.548Z,15.07
2022-11-19T01:18:29.942Z,13.77
2022-11-19T01:19:53.304Z,11.77
2022-11-19T01:21:17.728Z,12.70
2022-11-19T01:22:40.105Z,11.80
2022-11-19T01:24:04.299Z,19.13
2022-11-19T01:25:26.745Z,18.37
2022-11-19T01:26:50.151Z,13.50
2022-11-19T01:28:12.660Z,12.30
2022-11-19T01:29:36.037Z,16.20
2022-11-19T01:30:58.606Z,11.13
2022-11-19T01:32:23.338Z,10.57
2022-11-19T01:33:47.270Z,11.63
2022-11-19T01:35:10.163Z,14.10
2022-11-19T01:36:33.542Z,10.50
2022-11-19T01:37:55.987Z,10.93
2022-11-19T01:39:19.782Z,13.30
2022-11-19T01:40:44.159Z,10.47
2022-11-19T01:42:27.748Z,9.90
2022-11-19T01:43:52.237Z,10.67
2022-11-19T01:45:31.881Z,14.67
2022-11-19T01:46:55.234Z,10.63
2022-11-19T01:48:22.551Z,15.93
2022-11-19T01:49:44.989Z,14.10
2022-11-19T01:51:12.899Z,11.07
2022-11-19T01:52:35.326Z,10.30
2022-11-19T01:54:01.762Z,13.33
2022-11-19T01:55:24.161Z,11.07
2022-11-19T01:56:47.626Z,10.17
2022-11-19T01:58:10.308Z,9.90
2022-11-19T01:59:33.914Z,10.87
2022-11-19T02:00:56.307Z,9.93
2022-11-19T02:02:22.559Z,15.00
2022-11-19T02:03:46.629Z,10.00
2022-11-19T02:05:10.499Z,11.97
2022-11-19T02:06:35.498Z,11.90
2022-11-19T02:07:58.813Z,14.67
2022-11-19T02:09:22.359Z,12.70
2022-11-19T02:10:51.003Z,9.90
2022-11-19T02:12:26.066Z,9.80
2022-11-19T02:13:56.145Z,11.30
2022-11-19T02:15:27.216Z,9.40
2022-11-19T02:16:55.292Z,10.80
2022-11-19T02:18:31.783Z,10.37
2022-11-19T02:20:25.829Z,11.93
2022-11-19T02:21:56.831Z,13.37
2022-11-19T02:23:57.436Z,11.23
2022-11-19T02:25:28.479Z,12.73
2022-11-19T02:27:27.206Z,10.07
2022-11-19T02:28:52.439Z,11.90
2022-11-19T02:30:18.221Z,11.57
2022-11-19T02:31:43.805Z,10.00
2022-11-19T02:33:08.994Z,9.73
2022-11-19T02:34:33.970Z,9.97
2022-11-19T02:36:01.473Z,8.97
2022-11-19T02:37:27.085Z,10.07
2022-11-19T02:38:52.130Z,9.13
2022-11-19T02:40:19.709Z,8.53
2022-11-19T02:41:48.023Z,9.33
2022-11-19T02:43:15.413Z,8.40
2022-11-19T02:45:02.416Z,11.83
2022-11-19T02:46:27.601Z,7.37
2022-11-19T02:47:53.744Z,6.93
2022-11-19T02:49:16.804Z,11.30
2022-11-19T02:50:45.056Z,10.70
2022-11-19T02:52:09.982Z,10.77
2022-11-19T02:53:34.550Z,7.87
2022-11-19T02:54:56.942Z,12.77
2022-11-19T02:56:48.719Z,9.67
2022-11-19T02:58:34.834Z,9.53
2022-11-19T03:00:19.318Z,12.87
2022-11-19T03:02:08.811Z,7.73
2022-11-19T03:03:50.828Z,13.53
2022-11-19T03:05:20.095Z,9.13
2022-11-19T03:06:43.463Z,9.63
2022-11-19T03:08:07.136Z,10.73
2022-11-19T03:09:31.150Z,9.70
2022-11-19T03:11:05.233Z,13.73
2022-11-19T03:12:35.682Z,10.70
2022-11-19T03:14:22.612Z,11.03
2022-11-19T03:16:05.995Z,10.10
2022-11-19T03:17:33.383Z,9.53
2022-11-19T03:18:59.206Z,10.63
2022-11-19T03:20:26.421Z,7.20
2022-11-19T03:21:55.077Z,15.90
2022-11-19T03:23:23.065Z,9.30
2022-11-19T03:24:49.490Z,8.50
2022-11-19T03:26:18.735Z,9.57
2022-11-19T03:27:44.227Z,10.47
2022-11-19T03:29:10.053Z,9.60
2022-11-19T03:30:33.427Z,10.30
2022-11-19T03:32:02.563Z,16.13
2022-11-19T03:33:30.652Z,13.20
2022-11-19T03:34:56.911Z,9.17
2022-11-19T03:36:23.324Z,9.50
2022-11-19T03:37:47.034Z,7.67
2022-11-19T03:39:14.312Z,12.33
2022-11-19T03:40:38.540Z,14.73
2022-11-19T03:42:01.007Z,10.63
2022-11-19T03:43:28.851Z,9.53
2022-11-19T03:44:57.057Z,10.30
2022-11-19T03:46:22.417Z,9.23
2022-11-19T03:47:47.485Z,12.73
2022-11-19T03:49:12.830Z,8.43
2022-11-19T03:50:42.046Z,12.30
2022-11-19T03:52:10.204Z,11.80
2022-11-19T03:53:33.588Z,8.47
2022-11-19T03:54:56.031Z,8.30
2022-11-19T03:56:23.245Z,9.80
2022-11-19T03:57:46.775Z,10.53
2022-11-19T03:59:11.674Z,8.03
2022-11-19T04:00:34.521Z,9.27
2022-11-19T04:02:01.912Z,9.53
2022-11-19T04:03:25.318Z,14.77
2022-11-19T04:04:49.058Z,12.60
2022-11-19T04:06:12.448Z,9.40
2022-11-19T04:07:36.003Z,12.63
2022-11-19T04:08:58.399Z,8.43
2022-11-19T04:10:21.772Z,9.10
2022-11-19T04:13:07.639Z,11.00
2022-11-19T04:14:30.060Z,8.80
2022-11-19T04:15:53.603Z,9.13
2022-11-19T04:17:17.735Z,12.03
2022-11-19T04:18:40.455Z,12.47
2022-11-19T04:20:06.584Z,8.87
2022-11-19T04:21:29.013Z,10.87
2022-11-19T04:22:52.892Z,10.80
2022-11-19T04:24:17.838Z,8.83
2022-11-19T04:25:41.670Z,9.93
2022-11-19T04:27:04.274Z,12.97
2022-11-19T04:28:27.671Z,8.57
2022-11-19T04:29:52.649Z,8.57
2022-11-19T04:31:18.072Z,11.70
2022-11-19T04:32:41.618Z,9.50
2022-11-19T04:34:04.147Z,10.70
2022-11-19T04:35:28.869Z,9.73
2022-11-19T04:36:52.333Z,9.80
2022-11-19T04:38:15.735Z,11.43
2022-11-19T04:39:38.105Z,13.57
2022-11-19T04:41:01.563Z,8.60
2022-11-19T04:42:24.948Z,16.43
2022-11-19T04:43:47.306Z,11.67
2022-11-19T04:45:11.824Z,11.93
2022-11-19T04:46:34.562Z,11.33
2022-11-19T04:47:57.924Z,9.60
2022-11-19T04:49:21.541Z,12.67
2022-11-19T04:50:45.441Z,9.27
2022-11-19T04:52:08.888Z,10.47
2022-11-19T04:53:31.295Z,13.90
2022-11-19T04:54:54.669Z,7.90
2022-11-19T04:56:17.234Z,10.90
2022-11-19T04:57:42.290Z,12.60
2022-11-19T04:59:05.877Z,5.80
2022-11-19T05:00:29.244Z,11.37
2022-11-19T05:01:52.544Z,6.73
2022-11-19T05:03:16.246Z,7.10
2022-11-19T05:04:39.650Z,10.13
2022-11-19T05:06:03.438Z,8.90
2022-11-19T05:07:26.827Z,8.30
2022-11-19T05:08:50.240Z,10.47
2022-11-19T05:10:12.820Z,8.23
2022-11-19T05:11:36.256Z,7.83
2022-11-19T05:12:58.662Z,9.23
2022-11-19T05:14:23.782Z,7.23
2022-11-19T05:15:49.790Z,8.13
2022-11-19T05:17:13.194Z,12.50
2022-11-19T05:18:35.667Z,9.90
2022-11-19T05:20:00.183Z,10.77
2022-11-19T05:21:24.922Z,8.80
2022-11-19T05:22:47.362Z,11.30
2022-11-19T05:24:11.027Z,6.50
2022-11-19T05:25:33.427Z,7.17
2022-11-19T05:26:56.795Z,8.33
2022-11-19T05:28:32.814Z,7.20
2022-11-19T05:29:55.396Z,9.43
2022-11-19T05:31:18.780Z,8.23
2022-11-19T05:32:42.121Z,9.40
2022-11-19T05:34:05.546Z,6.73
2022-11-19T05:35:28.035Z,9.13
2022-11-19T05:36:52.791Z,9.80
2022-11-19T05:38:16.136Z,10.10
2022-11-19T05:39:38.508Z,7.93
2022-11-19T05:41:01.848Z,7.17
2022-11-19T05:42:24.263Z,7.37
2022-11-19T05:43:47.653Z,8.27
2022-11-19T05:45:10.859Z,9.27
2022-11-19T05:46:34.233Z,6.00
2022-11-19T05:47:56.982Z,7.67
2022-11-19T05:49:20.661Z,8.37
2022-11-19T05:50:44.309Z,6.03
2022-11-19T05:52:08.357Z,7.63
2022-11-19T05:53:31.722Z,7.17
2022-11-19T05:54:54.103Z,5.90
2022-11-19T05:56:17.524Z,8.40
2022-11-19T05:57:40.903Z,8.17
2022-11-19T05:59:03.293Z,7.63
2022-11-19T06:00:26.780Z,8.63
2022-11-19T06:01:49.218Z,7.77
2022-11-19T06:03:12.856Z,5.57
2022-11-19T06:04:37.039Z,5.27
2022-11-19T06:06:00.953Z,11.03
2022-11-19T06:07:25.738Z,8.73
2022-11-19T06:08:49.197Z,8.30
2022-11-19T06:10:14.526Z,8.40
2022-11-19T06:11:50.310Z,11.03
2022-11-19T06:13:13.827Z,7.33
2022-11-19T06:14:37.264Z,10.43
2022-11-19T06:16:00.605Z,4.90
2022-11-19T06:17:23.051Z,7.57
2022-11-19T06:18:46.395Z,7.43
2022-11-19T06:20:11.188Z,10.50
2022-11-19T06:21:33.804Z,9.20
2022-11-19T06:22:59.039Z,8.73
2022-11-19T06:24:21.607Z,7.60
2022-11-19T06:25:44.970Z,7.47
2022-11-19T06:27:08.442Z,5.70
2022-11-19T06:28:31.835Z,9.43
2022-11-19T06:29:56.460Z,6.53
2022-11-19T06:31:20.124Z,6.87
2022-11-19T06:32:43.571Z,7.63
2022-11-19T06:34:05.982Z,5.97
2022-11-19T06:35:29.396Z,7.00
2022-11-19T06:36:52.991Z,9.60
2022-11-19T06:38:17.748Z,7.00
2022-11-19T06:39:41.089Z,10.17
2022-11-19T06:41:03.604Z,7.90
2022-11-19T06:42:39.045Z,14.17
2022-11-19T06:44:01.466Z,9.50
2022-11-19T06:45:24.820Z,7.30
2022-11-19T06:46:48.228Z,7.13
2022-11-19T06:48:10.616Z,7.27
2022-11-19T06:49:34.352Z,5.67
2022-11-19T06:50:57.807Z,7.83
2022-11-19T06:52:21.173Z,9.47
2022-11-19T06:53:45.900Z,6.23
2022-11-19T06:55:13.437Z,7.83
2022-11-19T06:56:36.762Z,7.30
2022-11-19T06:58:03.897Z,7.83
2022-11-19T06:59:26.271Z,8.77
2022-11-19T07:00:49.761Z,8.80
2022-11-19T07:02:15.164Z,6.73
2022-11-19T07:03:41.246Z,8.20
2022-11-19T07:05:05.021Z,9.73
2022-11-19T07:06:28.384Z,5.90
2022-11-19T07:07:50.742Z,9.57
2022-11-19T07:09:15.484Z,8.50
2022-11-19T07:10:38.837Z,6.40
2022-11-19T07:12:02.205Z,6.13
2022-11-19T07:13:45.567Z,7.93
2022-11-19T07:15:09.757Z,6.93
2022-11-19T07:16:35.134Z,5.37
2022-11-19T07:17:58.526Z,13.97
2022-11-19T07:19:22.099Z,6.73
2022-11-19T07:20:47.412Z,6.93
2022-11-19T07:22:10.757Z,8.37
2022-11-19T07:23:33.132Z,12.90
2022-11-19T07:24:57.897Z,8.70
2022-11-19T07:26:20.288Z,7.40
2022-11-19T07:27:46.881Z,5.80
2022-11-19T07:29:11.873Z,6.37
2022-11-19T07:30:34.305Z,7.70
2022-11-19T07:31:57.672Z,8.43
2022-11-19T07:33:21.038Z,6.97
2022-11-19T07:34:44.395Z,8.93
2022-11-19T07:36:12.798Z,9.13
2022-11-19T07:37:40.471Z,6.57
2022-11-19T07:39:04.069Z,7.40
2022-11-19T07:40:28.884Z,6.90
2022-11-19T07:42:09.908Z,8.90
2022-11-19T07:43:32.275Z,7.37
2022-11-19T07:44:55.641Z,6.43
2022-11-19T07:46:18.214Z,5.53
2022-11-19T07:47:41.680Z,8.60
2022-11-19T07:49:05.082Z,6.85
2022-11-19T07:50:28.436Z,6.75
2022-11-19T07:51:52.244Z,7.32
2022-11-19T07:53:14.700Z,6.25
2022-11-19T07:54:38.080Z,7.40
2022-11-19T07:56:03.602Z,8.32
2022-11-19T07:57:30.263Z,6.00
2022-11-19T07:58:54.017Z,6.22
2022-11-19T08:00:17.813Z,4.40
2022-11-19T08:01:41.240Z,11.10
2022-11-19T08:03:05.533Z,6.75
2022-11-19T08:04:29.492Z,6.30
2022-11-19T08:05:52.864Z,5.70
2022-11-19T08:07:16.299Z,6.03
2022-11-19T08:08:39.813Z,6.88
2022-11-19T08:10:03.175Z,8.23
2022-11-19T08:11:27.941Z,7.80
2022-11-19T08:13:03.124Z,6.65
2022-11-19T08:14:26.608Z,7.07
2022-11-19T08:15:49.008Z,6.32
2022-11-19T08:17:29.999Z,9.15
2022-11-19T08:18:53.332Z,8.23
2022-11-19T08:20:17.804Z,7.13
2022-11-19T08:21:45.304Z,7.35
2022-11-19T08:23:08.878Z,6.88
2022-11-19T08:24:33.261Z,6.07
2022-11-19T08:25:56.683Z,5.20
2022-11-19T08:27:21.431Z,6.32
2022-11-19T08:28:44.757Z,6.60
2022-11-19T08:30:09.399Z,5.22
2022-11-19T08:31:32.958Z,7.25
2022-11-19T08:32:56.334Z,5.38
2022-11-19T08:34:19.948Z,10.85
2022-11-19T08:35:43.970Z,6.18
2022-11-19T08:37:07.728Z,9.38
2022-11-19T08:38:35.848Z,5.80
2022-11-19T08:40:01.694Z,5.82
2022-11-19T08:41:38.991Z,5.13
2022-11-19T08:43:02.985Z,4.20
2022-11-19T08:44:26.370Z,7.32
2022-11-19T08:45:54.674Z,5.60
2022-11-19T08:47:18.100Z,5.80
2022-11-19T08:48:40.512Z,6.47
2022-11-19T08:50:03.952Z,6.65
2022-11-19T08:51:27.379Z,7.03
2022-11-19T08:52:55.860Z,7.00
2022-11-19T08:54:20.636Z,5.00
2022-11-19T08:55:44.255Z,6.90
2022-11-19T08:57:07.666Z,5.72
2022-11-19T08:58:31.945Z,7.38
2022-11-19T08:59:55.404Z,5.95
2022-11-19T09:01:19.433Z,6.70
2022-11-19T09:02:42.962Z,6.28
2022-11-19T09:04:06.490Z,6.50
2022-11-19T09:05:29.880Z,6.93
2022-11-19T09:06:53.271Z,8.10
2022-11-19T09:08:16.638Z,8.32
2022-11-19T09:09:40.206Z,6.10
2022-11-19T09:11:07.753Z,7.28
2022-11-19T09:12:31.619Z,5.93
2022-11-19T09:13:58.458Z,6.03
2022-11-19T09:15:21.934Z,6.22
2022-11-19T09:16:45.318Z,6.95
2022-11-19T09:18:08.670Z,5.55
2022-11-19T09:19:32.029Z,7.28
2022-11-19T09:20:56.061Z,9.98
2022-11-19T09:22:19.421Z,7.22
2022-11-19T09:23:43.113Z,5.88
2022-11-19T09:25:08.866Z,5.63
2022-11-19T09:26:32.256Z,8.85
2022-11-19T09:27:55.708Z,5.45
2022-11-19T09:29:20.684Z,7.35
2022-11-19T09:30:44.079Z,4.95
2022-11-19T09:32:07.437Z,5.57
2022-11-19T09:33:32.943Z,5.13
2022-11-19T09:34:56.348Z,6.55
2022-11-19T09:36:20.818Z,4.07
2022-11-19T09:37:44.201Z,5.15
2022-11-19T09:39:07.554Z,4.10
2022-11-19T09:40:31.003Z,4.45
2022-11-19T09:41:58.612Z,4.85
2022-11-19T09:43:26.971Z,4.70
2022-11-19T09:45:20.076Z,4.68
2022-11-19T09:46:51.160Z,6.32
2022-11-19T09:48:23.360Z,4.18
2022-11-19T09:49:50.811Z,4.53
2022-11-19T09:51:16.458Z,3.95
2022-11-19T09:52:44.016Z,3.42
2022-11-19T09:54:09.486Z,5.90
2022-11-19T09:55:34.681Z,8.70
2022-11-19T09:57:03.206Z,5.43
2022-11-19T09:58:31.755Z,3.45
2022-11-19T09:59:57.545Z,2.80
2022-11-19T10:01:21.487Z,3.88
2022-11-19T10:02:46.332Z,2.80
2022-11-19T10:04:12.056Z,5.57
2022-11-19T10:05:42.110Z,5.75
2022-11-19T10:07:11.786Z,3.47
2022-11-19T10:08:48.676Z,3.90
2022-11-19T10:10:25.166Z,3.65
2022-11-19T10:12:00.333Z,2.75
2022-11-19T10:13:34.904Z,2.88
2022-11-19T10:15:14.503Z,6.18
2022-11-19T10:16:50.763Z,3.75
2022-11-19T10:18:21.176Z,3.30
2022-11-19T10:19:50.165Z,3.25
2022-11-19T10:21:19.176Z,3.08
2022-11-19T10:22:57.006Z,4.60
2022-11-19T10:24:26.142Z,4.55
2022-11-19T10:25:51.534Z,5.20
2022-11-19T10:27:21.257Z,5.03
2022-11-19T10:28:50.594Z,2.92
2022-11-19T10:30:18.872Z,4.07
2022-11-19T10:31:46.831Z,5.78
2022-11-19T10:33:17.972Z,3.30
2022-11-19T10:34:41.621Z,2.28
2022-11-19T10:36:07.204Z,4.60
2022-11-19T10:37:34.530Z,2.70
2022-11-19T10:39:03.842Z,7.22
2022-11-19T10:40:31.242Z,6.18
2022-11-19T10:41:58.967Z,3.30
2022-11-19T10:43:27.683Z,2.25
2022-11-19T10:44:55.033Z,3.25
2022-11-19T10:46:22.072Z,4.25
2022-11-19T10:47:49.001Z,4.45
2022-11-19T10:49:13.754Z,3.70
2022-11-19T10:50:37.427Z,3.55
2022-11-19T10:51:59.825Z,3.75
2022-11-19T10:53:28.512Z,2.97
2022-11-19T10:54:52.592Z,3.42
2022-11-19T10:56:18.748Z,4.63
2022-11-19T10:57:42.908Z,5.72
2022-11-19T10:59:12.662Z,4.03
2022-11-19T11:00:37.748Z,3.55
2022-11-19T11:02:04.598Z,3.67
2022-11-19T11:03:30.190Z,6.28
2022-11-19T11:05:05.123Z,2.78
2022-11-19T11:06:28.483Z,3.10
2022-11-19T11:07:53.707Z,3.15
2022-11-19T11:09:33.422Z,3.60
2022-11-19T11:10:57.064Z,3.42
2022-11-19T11:12:39.715Z,5.03
2022-11-19T11:14:20.836Z,3.83
2022-11-19T11:15:49.233Z,3.88
2022-11-19T11:17:19.784Z,4.00
2022-11-19T11:18:43.365Z,2.78
2022-11-19T11:20:21.421Z,3.55
2022-11-19T11:21:45.505Z,5.10
2022-11-19T11:23:10.556Z,4.15
2022-11-19T11:24:35.863Z,5.25
2022-11-19T11:26:05.541Z,3.92
2022-11-19T11:27:33.324Z,3.90
2022-11-19T11:29:02.436Z,4.93
2022-11-19T11:30:25.789Z,5.28
2022-11-19T11:31:49.742Z,3.80
2022-11-19T11:33:31.690Z,5.05
2022-11-19T11:34:55.039Z,4.38
2022-11-19T11:36:22.085Z,4.78
2022-11-19T11:37:46.317Z,4.00
2022-11-19T11:39:26.295Z,4.70
2022-11-19T11:41:24.040Z,4.82
2022-11-19T11:42:42.290Z,3.75
2022-11-19T11:44:08.520Z,5.00
2022-11-19T11:45:33.069Z,7.70
2022-11-19T11:46:58.179Z,5.07
2022-11-19T11:48:22.754Z,4.20
2022-11-19T11:49:48.397Z,3.95
2022-11-19T11:53:00.267Z,8.05
2022-11-19T11:54:23.023Z,8.55
2022-11-19T11:55:46.408Z,6.07
2022-11-19T11:57:16.065Z,4.97
2022-11-19T11:58:39.484Z,4.70
2022-11-19T12:00:05.791Z,7.10
2022-11-19T12:01:28.216Z,5.30
2022-11-19T12:03:02.139Z,7.07
2022-11-19T12:04:26.238Z,5.22
2022-11-19T12:05:57.575Z,4.93
2022-11-19T12:07:40.058Z,6.35
2022-11-19T12:09:10.778Z,10.07
2022-11-19T12:10:43.041Z,6.45
2022-11-19T12:12:10.198Z,9.13
2022-11-19T12:13:53.570Z,4.93
2022-11-19T12:15:23.411Z,3.65
2022-11-19T12:16:55.822Z,4.05
2022-11-19T12:18:26.519Z,5.13
2022-11-19T12:20:03.814Z,4.05
2022-11-19T12:21:35.472Z,4.47
2022-11-19T12:23:13.466Z,4.35
2022-11-19T12:24:57.736Z,4.40
2022-11-19T12:26:24.650Z,4.32
2022-11-19T12:27:57.860Z,5.00
2022-11-19T12:29:25.428Z,5.82
2022-11-19T12:30:56.843Z,4.70
2022-11-19T12:32:32.680Z,10.52
2022-11-19T12:34:09.312Z,4.55
2022-11-19T12:35:42.993Z,4.95
2022-11-19T12:37:17.479Z,6.63
2022-11-19T12:38:47.834Z,4.70
2022-11-19T12:40:22.358Z,5.28
2022-11-19T12:42:07.778Z,4.57
2022-11-19T12:43:44.415Z,6.90
2022-11-19T12:45:11.428Z,5.20
2022-11-19T12:46:46.970Z,4.82
2022-11-19T12:48:43.732Z,7.28
2022-11-19T12:50:17.430Z,7.25
2022-11-19T12:51:45.817Z,5.22
2022-11-19T12:53:26.135Z,6.38
2022-11-19T12:54:56.603Z,7.75
2022-11-19T12:56:32.094Z,5.43
2022-11-19T12:58:02.040Z,6.55
2022-11-19T12:59:37.267Z,5.57
2022-11-19T13:01:05.376Z,5.05
2022-11-19T13:02:30.013Z,5.38
2022-11-19T13:04:05.222Z,5.93
2022-11-19T13:05:38.894Z,5.63
2022-11-19T13:07:04.835Z,4.25
2022-11-19T13:08:32.843Z,3.78
2022-11-19T13:10:03.001Z,4.80
2022-11-19T13:11:36.285Z,4.55
2022-11-19T13:13:00.334Z,5.00
2022-11-19T13:14:28.579Z,5.57
2022-11-19T13:15:55.945Z,6.22
2022-11-19T13:17:22.428Z,6.97
2022-11-19T13:18:48.935Z,5.25
2022-11-19T13:20:18.447Z,6.68
2022-11-19T13:21:45.331Z,6.50
2022-11-19T13:23:10.814Z,7.18
2022-11-19T13:24:36.519Z,4.35
2022-11-19T13:26:01.880Z,6.95
2022-11-19T13:27:28.478Z,8.57
2022-11-19T13:28:55.031Z,6.05
2022-11-19T13:30:21.287Z,6.00
2022-11-19T13:31:47.590Z,5.03
2022-11-19T13:33:17.044Z,6.40
2022-11-19T13:34:45.296Z,5.78
2022-11-19T13:36:17.500Z,4.57
2022-11-19T13:37:46.870Z,10.60
2022-11-19T13:39:15.480Z,4.18
2022-11-19T13:40:41.290Z,5.53
2022-11-19T13:42:23.292Z,4.55
2022-11-19T13:44:05.830Z,5.07
2022-11-19T13:45:29.936Z,4.78
2022-11-19T13:46:57.380Z,6.20
2022-11-19T13:48:24.581Z,8.38
2022-11-19T13:49:51.131Z,5.80
2022-11-19T13:51:26.099Z,5.85
2022-11-19T13:52:55.124Z,5.32
2022-11-19T13:54:25.077Z,6.13
2022-11-19T13:55:49.422Z,5.45
2022-11-19T13:57:27.728Z,5.38
2022-11-19T13:58:53.935Z,6.72
2022-11-19T14:00:24.596Z,5.85
2022-11-19T14:01:58.831Z,7.07
2022-11-19T14:03:34.798Z,7.00
2022-11-19T14:05:08.792Z,4.15
2022-11-19T14:06:46.501Z,9.13
2022-11-19T14:08:17.732Z,6.53
2022-11-19T14:09:48.589Z,9.35
2022-11-19T14:11:22.440Z,8.98
2022-11-19T14:13:07.250Z,7.18
2022-11-19T14:15:04.416Z,6.18
2022-11-19T14:16:51.276Z,13.90
2022-11-19T14:18:41.529Z,6.65
2022-11-19T14:20:59.989Z,4.43
2022-11-19T14:22:51.712Z,9.88
2022-11-19T14:25:06.164Z,10.02
2022-11-19T14:27:15.567Z,4.57
2022-11-19T14:28:43.191Z,6.00
2022-11-19T14:30:10.128Z,39.22
2022-11-19T14:31:33.560Z,13.90
2022-11-19T14:32:56.956Z,9.57
2022-11-19T14:34:27.260Z,7.78
2022-11-19T14:35:50.834Z,5.15
2022-11-19T14:37:17.858Z,8.88
2022-11-19T14:38:44.081Z,4.30
2022-11-19T14:40:10.369Z,7.28
2022-11-19T14:41:34.779Z,5.32
2022-11-19T14:43:43.195Z,5.25
2022-11-19T14:45:23.523Z,5.63
2022-11-19T14:46:48.879Z,15.02
2022-11-19T14:48:11.310Z,6.80
2022-11-19T14:49:35.958Z,6.50
2022-11-19T14:51:03.605Z,6.75
2022-11-19T14:52:29.570Z,7.50
2022-11-19T14:53:55.919Z,7.60
2022-11-19T14:55:22.086Z,8.52
2022-11-19T14:56:48.980Z,5.03
2022-11-19T14:58:22.622Z,5.00
2022-11-19T14:59:51.134Z,7.70
2022-11-19T15:01:22.715Z,8.75
2022-11-19T15:02:48.720Z,6.20
2022-11-19T15:04:13.000Z,7.30
2022-11-19T15:05:40.551Z,10.15
2022-11-19T15:07:08.602Z,10.52
2022-11-19T15:08:48.119Z,5.82
2022-11-19T15:10:47.412Z,6.75
2022-11-19T15:12:10.829Z,6.75
2022-11-19T15:13:34.756Z,9.02
2022-11-19T15:15:07.416Z,7.50
2022-11-19T15:16:35.915Z,8.98
2022-11-19T15:18:12.517Z,5.93
2022-11-19T15:19:40.925Z,8.18
2022-11-19T15:21:29.874Z,11.35
2022-11-19T15:23:03.234Z,7.55
2022-11-19T15:24:35.310Z,6.35
2022-11-19T15:26:07.808Z,5.75
2022-11-19T15:27:43.157Z,8.68
2022-11-19T15:29:14.228Z,6.30
2022-11-19T15:31:13.022Z,6.53
2022-11-19T15:32:51.049Z,5.60
2022-11-19T15:34:38.497Z,6.78
2022-11-19T15:36:32.335Z,6.60
2022-11-19T15:38:00.195Z,5.72
2022-11-19T15:39:26.292Z,4.78
2022-11-19T15:40:52.791Z,7.05
2022-11-19T15:42:19.703Z,7.03
2022-11-19T15:43:46.036Z,5.47
2022-11-19T15:45:15.908Z,6.53
2022-11-19T15:46:44.470Z,9.50
2022-11-19T15:48:13.935Z,5.10
2022-11-19T15:49:38.106Z,7.60
2022-11-19T15:51:02.641Z,5.88
2022-11-19T15:52:30.617Z,6.53
2022-11-19T15:54:01.005Z,5.03
2022-11-19T15:55:26.922Z,7.95
2022-11-19T15:56:52.130Z,5.75
2022-11-19T15:58:19.274Z,7.18
2022-11-19T15:59:42.761Z,7.15
2022-11-19T16:01:07.294Z,7.45
2022-11-19T16:02:36.784Z,6.90
2022-11-19T16:04:05.695Z,7.18
2022-11-19T16:05:32.633Z,8.10
2022-11-19T16:06:56.465Z,6.35
2022-11-19T16:08:19.872Z,9.13
2022-11-19T16:09:43.570Z,7.03
2022-11-19T16:11:24.914Z,5.85
2022-11-19T16:13:13.489Z,8.98
2022-11-19T16:14:54.549Z,5.82
2022-11-19T16:16:41.646Z,7.50
2022-11-19T16:18:05.525Z,7.18
2022-11-19T16:19:30.345Z,6.30
2022-11-19T16:20:54.557Z,7.40
2022-11-19T16:22:18.314Z,9.07
2022-11-19T16:24:02.203Z,10.10
2022-11-19T16:25:30.235Z,6.38
2022-11-19T16:26:53.604Z,9.90
2022-11-19T16:28:18.646Z,5.88
2022-11-19T16:29:43.708Z,6.30
2022-11-19T16:31:08.348Z,5.95
2022-11-19T16:32:31.985Z,7.25
2022-11-19T16:33:56.202Z,7.78
2022-11-19T16:35:25.486Z,7.07
2022-11-19T16:36:48.999Z,6.25
2022-11-19T16:38:17.277Z,7.53
2022-11-19T16:39:40.936Z,8.63
2022-11-19T16:41:21.824Z,6.95
2022-11-19T16:42:48.778Z,6.18
2022-11-19T16:44:14.151Z,7.90
2022-11-19T16:45:37.644Z,7.18
2022-11-19T16:47:06.401Z,5.57
2022-11-19T16:48:55.903Z,6.50
2022-11-19T16:50:31.473Z,6.50
2022-11-19T16:51:55.268Z,7.13
2022-11-19T16:53:46.685Z,6.82
2022-11-19T16:55:40.430Z,7.53
2022-11-19T16:57:07.357Z,9.50
2022-11-19T16:58:30.822Z,8.13
2022-11-19T16:59:55.462Z,11.27
2022-11-19T17:01:19.657Z,7.15
2022-11-19T17:02:43.167Z,8.40
2022-11-19T17:04:08.134Z,6.65
2022-11-19T17:05:31.588Z,8.35
2022-11-19T17:06:55.039Z,7.80
2022-11-19T17:08:23.738Z,8.25
2022-11-19T17:09:48.468Z,8.60
2022-11-19T17:11:30.775Z,8.70
2022-11-19T17:12:55.390Z,6.85
2022-11-19T17:14:20.863Z,7.18
2022-11-19T17:15:45.256Z,7.32
2022-11-19T17:17:40.763Z,9.93
2022-11-19T17:19:16.719Z,7.93
2022-11-19T17:21:01.161Z,5.95
2022-11-19T17:22:26.451Z,6.65
2022-11-19T17:23:51.357Z,7.35
2022-11-19T17:25:16.291Z,7.68
2022-11-19T17:26:39.959Z,8.02
2022-11-19T17:28:03.711Z,6.85
2022-11-19T17:29:27.431Z,8.13
2022-11-19T17:30:51.613Z,7.18
2022-11-19T17:32:15.001Z,11.38
2022-11-19T17:33:38.499Z,6.80
2022-11-19T17:35:02.039Z,10.88
2022-11-19T17:36:27.814Z,8.18
2022-11-19T17:37:51.813Z,9.77
2022-11-19T17:39:15.780Z,8.23
2022-11-19T17:40:40.524Z,10.85
2022-11-19T17:42:22.040Z,8.90
2022-11-19T17:44:03.047Z,9.63
2022-11-19T17:45:26.408Z,8.52
2022-11-19T17:46:50.039Z,7.95
2022-11-19T17:48:17.163Z,10.20
2022-11-19T17:49:40.561Z,8.77
2022-11-19T17:51:04.429Z,7.90
2022-11-19T17:52:29.616Z,11.30
2022-11-19T17:53:54.232Z,11.50
2022-11-19T17:55:20.408Z,9.48
2022-11-19T17:56:45.229Z,9.13
2022-11-19T17:58:08.969Z,8.82
2022-11-19T17:59:32.376Z,8.15
2022-11-19T18:00:55.740Z,10.77
2022-11-19T18:02:20.873Z,9.77
2022-11-19T18:03:44.241Z,11.80
2022-11-19T18:05:16.279Z,10.98
2022-11-19T18:06:39.857Z,7.80
2022-11-19T18:08:03.218Z,8.27
2022-11-19T18:09:28.043Z,8.30
2022-11-19T18:10:54.382Z,9.50
2022-11-19T18:12:20.151Z,10.55
2022-11-19T18:13:44.045Z,8.77
2022-11-19T18:15:08.261Z,10.13
2022-11-19T18:16:35.026Z,7.75
2022-11-19T18:17:58.547Z,8.15
2022-11-19T18:19:26.288Z,10.45
2022-11-19T18:20:51.525Z,6.97
2022-11-19T18:22:18.689Z,10.63
2022-11-19T18:23:42.506Z,7.72
2022-11-19T18:25:13.810Z,10.73
2022-11-19T18:26:37.193Z,10.20
2022-11-19T18:28:02.013Z,11.15
2022-11-19T18:29:25.348Z,9.95
2022-11-19T18:30:48.712Z,9.45
2022-11-19T18:32:15.185Z,9.27
2022-11-19T18:33:39.023Z,6.82
2022-11-19T18:35:02.422Z,10.30
2022-11-19T18:36:26.789Z,6.57
2022-11-19T18:37:50.392Z,11.25
2022-11-19T18:39:13.819Z,7.72
2022-11-19T18:40:37.390Z,10.82
2022-11-19T18:42:00.826Z,12.40
2022-11-19T18:43:54.587Z,5.63
2022-11-19T18:45:16.956Z,10.32
2022-11-19T18:46:40.301Z,8.52
2022-11-19T18:48:03.731Z,8.20
2022-11-19T18:49:27.191Z,5.07
2022-11-19T18:50:50.720Z,7.22
2022-11-19T18:52:15.605Z,7.28
2022-11-19T18:53:39.115Z,9.88
2022-11-19T18:55:02.650Z,8.07
2022-11-19T18:56:26.107Z,8.82
2022-11-19T18:57:49.505Z,10.25
2022-11-19T18:59:13.779Z,8.27
2022-11-19T19:00:37.107Z,8.65
2022-11-19T19:02:00.612Z,13.63
2022-11-19T19:03:24.076Z,11.23
2022-11-19T19:04:51.029Z,7.70
2022-11-19T19:06:15.661Z,8.43
2022-11-19T19:07:39.107Z,8.50
2022-11-19T19:09:02.494Z,12.77
2022-11-19T19:10:25.926Z,7.55
2022-11-19T19:12:12.532Z,9.13
2022-11-19T19:13:36.273Z,8.80
2022-11-19T19:15:00.982Z,12.52
2022-11-19T19:16:24.519Z,8.52
2022-11-19T19:17:47.871Z,10.15
2022-11-19T19:19:14.102Z,6.70